Gassim, السعودية

04:39 AM AST on سبتهبر 18, 2014 (GMT +0300)
Gassim | Change Station
CLOSE
Current Station
Airport
Location: Gassim,
Elevation: 2126 ft
Nearby Weather Stations

Elev 2126 ft 26.30 °N, 43.77 °E | Updated 39 minutes ago

Clear
صافية
79 °F
Feels Like 79 °F
N
2
ريح متغير ريح from شمال

هذا اليوم
High -- | Low -- °F
--% Chance of Precip.
Yesterday
High -- | Low -- °F
Precip. -- في
5:51 AM 6:06 PM
الهلال الأخير, 31% visible
الضغط 29.86 في
وضوح الرؤية -9999.0 أميال
سحابات
نقطة الندى 41 °F
الرطوبة 26%
Rainfall 0.00 في
عمق الثلج Not available.
الأشعة فوق البنفسجية Not available.
Pollen Not available.
جودة الهواء Not available.
Flu Activity Not available.
METAR OEGS 180100Z 35002KT CAVOK 26/05 Q1011

More Conditions Fewer Conditions

الضغط 29.86 في
وضوح الرؤية -9999.0 أميال
سحابات
نقطة الندى 41 °F
الرطوبة 26%
Rainfall 0.00 في
عمق الثلج Not available.
الأشعة فوق البنفسجية Not available.
Pollen Not available.
جودة الهواء Not available.
Flu Activity Not available.
METAR OEGS 180100Z 35002KT CAVOK 26/05 Q1011

More Conditions Fewer Conditions

10-Day Weather Forecast

Almanac

علم الفلك

Sep. 18, 2014 Rise Set
Actual Time 5:51 AM AST 6:06 PM AST
Civil Twilight 5:28 AM AST 6:29 PM AST
Nautical Twilight 5:01 AM AST 6:56 PM AST
Astronomical Twilight 4:34 AM AST 7:23 PM AST
قمر 12:47 AM AST 2:21 PM AST
Length Of Visible Light 13h 00m
طول الیوم
12h 14m
Tomorrow will be 1m 32s shorter.
الهلال الأخير, 31% of the Moon is Illuminated
Sep 17
الهلال الأخير
Sep 24
New
Oct 1
الربع الاول
Oct 8
بدر
Oct 15
الربع الآخر

Yesterday's Extremes

Country Highs Country Lows

Community

WunderPhotos

Upload Photos

1,754,248 photos uploaded!

Nearby

جودة الهواء

Not available.

عمق الثلج

Not available.

Earthquake Activity

City Distance Mag. Time & Date
No recent earthquake activity has been reported nearby.
Minimum magnitude displayed is 2.5.

Coastal Water Temperatures

مكان درجات الحرارة
No Stations Reporting

Nearby Weather Stations